< < Back
Terminal Aerodrome Forecast


Current Version              Previous Versions:   1  2  3  4  5  6  7  8  9  

Terminal Aerodrome Forecast

325
FTUS42 KGSP 280520
TAFAVL
TAF
KAVL 280520Z 2806/2906 32010G18KT P6SM FEW020 OVC040
      TEMPO 2806/2810 6SM -SN BKN030
     FM281000 32012G20KT P6SM SCT045
     FM281400 32015G22KT P6SM SCT200
     FM290000 33007KT P6SM SKC=



Latest METAR

439
SAUS70 KWBC 281700 RRL
MTRAVL
METAR KAVL 281654Z 33015KT 10SM CLR 03/M11 A3006 RMK AO2 SLP185
T00331111


USA.gov is the U.S. government's official web portal to all federal, state and local government web resources and services.